createdAt,value
2023-03-29T00:06:35.530Z,4.35
2023-03-29T00:21:36.959Z,3.55
2023-03-29T00:36:40.464Z,2.40
2023-03-29T00:51:42.551Z,2.83
2023-03-29T01:06:45.345Z,4.28
2023-03-29T01:21:46.862Z,2.30
2023-03-29T01:36:49.582Z,2.75
2023-03-29T01:51:51.286Z,3.58
2023-03-29T02:06:54.210Z,4.70
2023-03-29T02:21:55.598Z,3.25
2023-03-29T02:36:58.844Z,3.05
2023-03-29T02:52:00.595Z,2.85
2023-03-29T03:07:02.096Z,2.92
2023-03-29T03:22:05.932Z,3.55
2023-03-29T03:37:07.441Z,2.80
2023-03-29T03:52:10.189Z,4.30
2023-03-29T04:07:13.100Z,4.85
2023-03-29T04:22:33.026Z,3.85
2023-03-29T04:37:35.175Z,3.60
2023-03-29T04:52:37.113Z,3.28
2023-03-29T05:07:40.965Z,2.60
2023-03-29T05:22:44.059Z,1.95
2023-03-29T05:37:51.632Z,3.00
2023-03-29T05:52:53.193Z,1.90
2023-03-29T06:07:54.809Z,2.25
2023-03-29T06:23:13.194Z,3.03
2023-03-29T06:38:15.211Z,1.42
2023-03-29T06:53:41.010Z,2.47
2023-03-29T07:08:47.389Z,2.28
2023-03-29T07:24:02.418Z,4.90
2023-03-29T07:39:04.000Z,3.80
2023-03-29T07:54:09.003Z,2.38
2023-03-29T08:09:13.727Z,1.88
2023-03-29T08:24:20.835Z,4.75
2023-03-29T08:39:26.665Z,2.03
2023-03-29T08:54:54.315Z,2.70
2023-03-29T09:10:02.123Z,1.50
2023-03-29T09:25:10.789Z,2.28
2023-03-29T09:40:12.371Z,2.42
2023-03-29T09:55:26.423Z,2.85
2023-03-29T10:10:43.416Z,2.80
2023-03-29T10:25:45.502Z,2.70
2023-03-29T10:40:47.553Z,3.28
2023-03-29T10:55:49.115Z,4.43
2023-03-29T11:10:50.668Z,1.83
2023-03-29T11:25:52.080Z,3.53
2023-03-29T11:40:53.514Z,3.22
2023-03-29T11:55:54.919Z,3.80
2023-03-29T12:10:56.639Z,2.05
2023-03-29T12:25:58.088Z,3.28
2023-03-29T12:41:00.188Z,3.90
2023-03-29T12:56:32.457Z,3.13
2023-03-29T13:11:34.261Z,3.42
2023-03-29T13:26:35.765Z,2.63
2023-03-29T13:41:37.467Z,2.03
2023-03-29T13:56:38.904Z,2.15
2023-03-29T14:11:40.694Z,4.25
2023-03-29T14:26:42.090Z,5.47
2023-03-29T14:41:43.493Z,3.40
2023-03-29T14:56:44.889Z,2.90
2023-03-29T15:11:46.460Z,3.92
2023-03-29T15:26:47.899Z,2.42
2023-03-29T15:41:49.311Z,3.67
2023-03-29T15:56:51.330Z,5.32
2023-03-29T16:11:52.840Z,3.53
2023-03-29T16:26:55.810Z,2.67
2023-03-29T16:41:57.658Z,4.80
2023-03-29T16:56:59.094Z,2.45
2023-03-29T17:12:00.532Z,2.30
2023-03-29T17:27:01.906Z,3.17
2023-03-29T17:42:03.306Z,3.15
2023-03-29T17:57:04.745Z,3.85
2023-03-29T18:12:07.536Z,2.55
2023-03-29T18:27:08.929Z,3.00
2023-03-29T18:42:12.111Z,3.97
2023-03-29T18:57:14.100Z,6.30
2023-03-29T19:12:15.704Z,7.38
2023-03-29T19:27:17.101Z,5.70
2023-03-29T19:42:18.500Z,2.58
2023-03-29T19:57:19.923Z,4.28
2023-03-29T20:12:21.371Z,4.18
2023-03-29T20:27:22.728Z,8.30
2023-03-29T20:42:28.713Z,3.88
2023-03-29T20:57:30.664Z,4.75
2023-03-29T21:12:32.169Z,4.38
2023-03-29T21:27:34.084Z,3.65
2023-03-29T21:42:35.441Z,6.53
2023-03-29T21:57:36.831Z,6.20
2023-03-29T22:12:38.455Z,4.90
2023-03-29T22:27:40.268Z,9.82
2023-03-29T22:42:41.788Z,9.38
2023-03-29T22:57:43.704Z,6.07
2023-03-29T23:12:45.100Z,7.55
2023-03-29T23:27:46.617Z,16.95
2023-03-29T23:42:48.921Z,11.07
2023-03-29T23:57:50.373Z,13.85
